• Join FlightAware (Why Join?)
  • Login
  • US Flag 
05:57AM EDT


 

Airport Tracker/Info


-or-


 

Live Flight TrackerFlight Track Log ✈ SWA2855 ✈ 17-May-2013 ✈ KBWI - KCMH

Flight Track Log - Related Links

Times and Time Zones

All times are in EDT time to prevent confusion due to time zone crossing. See the SWA2855 flight status page for this flight to view local times or setup timezone preferences in your user account.

Time Position Orientation Groundspeed Altitude Reporting Facility
EDT Latitude Longitude Course Direction KTS MPH feet Rate Location/Type
07:18AM 39.1833 -76.7333 270° West 188 216 2,900  Level Potomac TRACON
07:19AM 39.1833 -76.8000 270° West 231 266 6,000 3,900 Climbing Potomac TRACON
07:20AM 39.2000 -76.9000 282° West 267 307 10,700 4,140 Climbing Potomac TRACON
07:21AM 39.2000 -76.9833 270° West 289 333 14,300 3,540 Climbing Potomac TRACON
07:22AM 39.1500 -77.1000 241° Southwest 344 396 17,800 3,180 Climbing Potomac TRACON
07:24AM 39.0972 -77.3033 252° West 389 448 22,900 1,920 Climbing Washington Center
07:25AM 39.0786 -77.4392 260° West 389 448 23,000 1,380 Climbing Washington Center
07:26AM 39.0575 -77.5750 259° West 394 453 25,700 1,920 Climbing Washington Center
07:27AM 39.0389 -77.6975 259° West 389 448 27,000 600 Climbing Washington Center
07:28AM 39.0172 -77.8519 260° West 394 453 27,000 1,020 Level Washington Center
07:29AM 38.9958 -77.9900 259° West 394 453 29,100 1,500 Climbing Washington Center
07:30AM 38.9744 -78.1228 258° West 389 448 30,000 420 Climbing Washington Center
07:31AM 38.9611 -78.2558 263° West 389 448 30,000  Level Washington Center
07:32AM 38.9642 -78.3894 272° West 389 448 30,000  Level Washington Center
07:33AM 38.9694 -78.5258 273° West 384 442 30,000  Level Washington Center
07:34AM 38.9744 -78.6594 273° West 384 442 30,000  Level Washington Center
07:35AM 38.9856 -78.7936 276° West 384 442 30,000  Level Washington Center
07:36AM 38.9964 -78.9275 276° West 384 442 30,000  Level Washington Center
07:37AM 39.0053 -79.0589 275° West 389 448 30,000  Level Washington Center
07:38AM 39.0136 -79.1956 275° West 389 448 30,000  Level Washington Center
07:39AM 39.0222 -79.3297 275° West 389 448 30,000  Level Washington Center
07:40AM 39.0344 -79.4639 277° West 389 448 30,000  Level Washington Center
07:41AM 39.0428 -79.5981 275° West 389 448 30,000  Level Washington Center
07:42AM 39.0511 -79.7214 275° West 392 451 30,000  Level Washington Center
07:43AM 39.0608 -79.8556 275° West 386 444 30,000  Level Washington Center
07:45AM 39.0736 -80.1372 273° West 383 441 30,000  Level Indianapolis Center
07:46AM 39.0828 -80.2728 275° West 382 440 30,000  Level Indianapolis Center
07:47AM 39.0906 -80.4100 274° West 385 443 30,000 -60 Level Indianapolis Center
07:48AM 39.1008 -80.5450 276° West 382 440 29,900 -660 Descending Indianapolis Center
07:49AM 39.1436 -80.7003 290° West 384 442 28,700 -1,080 Descending Indianapolis Center
07:50AM 39.1786 -80.8261 290° West 377 434 27,700 -1,020 Descending Indianapolis Center
07:51AM 39.2139 -80.9531 290° West 377 434 26,700 -1,020 Descending Indianapolis Center
07:52AM 39.2483 -81.0756 290° West 368 423 25,700 -1,020 Descending Indianapolis Center
07:53AM 39.2822 -81.2000 289° West 369 425 24,700 -1,020 Descending Indianapolis Center
07:54AM 39.3150 -81.3208 289° West 361 415 23,700 -840 Descending Indianapolis Center
07:55AM 39.3475 -81.4397 290° West 355 409 23,000 -960 Descending Indianapolis Center
07:56AM 39.3864 -81.5819 290° West 350 403 21,800 -1,080 Descending Indianapolis Center
07:57AM 39.4183 -81.7003 289° West 350 403 20,800 -1,020 Descending Indianapolis Center
07:58AM 39.4492 -81.8147 289° West 340 391 19,800 -1,020 Descending Indianapolis Center
07:59AM 39.4669 -81.8861 288° West 336 387 19,200 -1,200 Descending Indianapolis Center
07:59AM 39.4789 -81.9278 290° West 334 384 18,600 -1,860 Descending Indianapolis Center
08:00AM 39.5028 -82.0219 288° West 325 374 17,000 -1,800 Descending Indianapolis Center
08:00AM 39.5086 -82.0389 294° West 327 376 16,800 -2,160 Descending Indianapolis Center
08:01AM 39.5417 -82.1042 303° West 321 369 15,300 -1,980 Descending Indianapolis Center
08:01AM 39.5589 -82.1386 303° West 318 366 14,800 -1,140 Descending Indianapolis Center
08:02AM 39.5903 -82.1983 304° West 312 359 14,200 -1,020 Descending Indianapolis Center
08:02AM 39.6075 -82.2322 303° West 311 358 13,800 -1,020 Descending Indianapolis Center
08:03AM 39.6369 -82.2894 304° West 308 354 13,200 -1,080 Descending Indianapolis Center
08:03AM 39.6550 -82.3256 303° West 309 356 12,700 -1,620 Descending Indianapolis Center
08:04AM 39.6856 -82.3814 305° West 307 353 11,600 -1,980 Descending Indianapolis Center
08:04AM 39.7111 -82.4303 304° West 300 345 10,700 -1,380 Descending Indianapolis Center
08:05AM 39.7300 -82.4700 302° West 294 338 10,200 -780 Descending Indianapolis Center
08:05AM 39.7539 -82.5161 304° West 283 326 9,900 -240 Descending Indianapolis Center
08:06AM 39.7767 -82.5592 305° West 274 315 10,000 -420 Climbing Indianapolis Center
08:06AM 39.7972 -82.6003 303° West 278 320 9,500 -1,440 Descending Indianapolis Center
08:07AM 39.8172 -82.6422 302° West 275 316 8,600 -1,860 Descending Indianapolis Center
08:07AM 39.8392 -82.6850 304° West 277 319 7,600 -1,920 Descending Indianapolis Center
08:08AM 39.8600 -82.7256 304° West 278 320 6,700 -1,680 Descending Indianapolis Center
08:08AM 39.8828 -82.7711 303° West 283 326 5,900 -720 Descending Indianapolis Center
08:09AM 39.9025 -82.8119 302° West 283 326 6,000  Climbing Indianapolis Center
08:09AM 39.9158 -82.8611 289° West 279 321 5,900 -120 Descending Indianapolis Center
08:10AM 39.9169 -82.9086 272° West 265 305 5,900 -600 Level Indianapolis Center
08:10AM 39.9192 -82.9531 274° West 251 289 5,300 -1,320 Descending Indianapolis Center
08:11AM 39.9217 -82.9933 275° West 232 267 4,600 -1,620 Descending Indianapolis Center
08:11AM 39.9231 -83.0392 272° West 241 277 3,700 -1,200 Descending Indianapolis Center
08:12AM 39.9242 -83.0781 272° West 230 265 3,400 -720 Descending Indianapolis Center
08:12AM 39.9272 -83.1181 276° West 229 264 3,000 -420 Descending Indianapolis Center
08:13AM 39.9294 -83.1519 275° West 192 221 3,000 -120 Level Indianapolis Center
08:13AM 39.9519 -83.1764 320° Northwest 206 237 2,900 -120 Descending Indianapolis Center
08:14AM 39.9681 -83.1700 17° North 194 223 2,900  Level Indianapolis Center
08:14AM 39.9964 -83.1450 34° Northeast 193 222 2,900 60 Level Indianapolis Center
08:15AM 40.0031 -83.1172 73° East 179 206 3,000  Climbing Indianapolis Center
08:15AM 40.0053 -83.0803 85° East 185 213 2,900 -120 Descending Indianapolis Center
08:16AM 40.0028 -83.0600 99° East 140 161 2,900 -420 Level Indianapolis Center
08:16AM 40.0019 -83.0292 92° East 160 184 2,500 -660 Descending Indianapolis Center
08:17AM 40.0000 -83.0078 97° East 120 138 2,200 -720 Descending Indianapolis Center
08:18AM 39.9992 -82.9819 92° East 141 162 1,800 -720 Descending Indianapolis Center
08:18AM 39.9972 -82.9586 96° East 127 146 1,500 -600 Descending Indianapolis Center
08:19AM 39.9967 -82.9367 92° East 131 151 1,200 -420 Descending Indianapolis Center
08:20AM 39.9931 -82.8867 95° East 129 148 900 -300 Descending Indianapolis Center